Time;durP1;ratioP1;P1;durP2;ratioP2;P2;SDS_P1;SDS_P2;PMS_P1;PMS_P2;Temp;Humidity;BMP_temperature;BMP_pressure;BME280_temperature;BME280_humidity;BME280_pressure;Samples;Min_cycle;Max_cycle;Signal;HPM_P1;HPM_P2
2022/01/25 00:08:54;;;;;;;125.60;57.23;;;;;;;;;;4985374;28;20501;-80
2022/01/25 00:25:30;;;;;;;123.00;55.60;;;;;;;;;;4987650;28;20481;-80
2022/01/25 00:28:17;;;;;;;114.17;52.80;;;;;;;;;;4986002;28;20474;-81
2022/01/25 00:30:57;;;;;;;124.00;59.80;;;;;;;;;;4984986;28;20454;-80
2022/01/25 00:33:23;;;;;;;124.97;56.87;;;;;;;;;;4985973;28;20533;-81
2022/01/25 00:35:50;;;;;;;122.80;55.33;;;;;;;;;;4986243;28;20459;-81
2022/01/25 00:38:17;;;;;;;108.00;54.27;;;;;;;;;;4984930;28;20904;-80
2022/01/25 00:40:43;;;;;;;124.60;55.50;;;;;;;;;;4985074;28;20462;-79
2022/01/25 00:43:10;;;;;;;127.00;57.67;;;;;;;;;;4985027;28;20537;-80
2022/01/25 00:45:36;;;;;;;127.47;56.50;;;;;;;;;;4985847;28;20912;-80
2022/01/25 00:48:04;;;;;;;127.90;56.57;;;;;;;;;;4983518;28;20501;-80
2022/01/25 00:50:36;;;;;;;134.07;57.27;;;;;;;;;;4986830;28;20534;-81
2022/01/25 00:55:48;;;;;;;128.17;55.93;;;;;;;;;;4986149;28;20447;-79
2022/01/25 00:58:14;;;;;;;136.23;58.93;;;;;;;;;;4983668;28;20483;-80
2022/01/25 01:00:40;;;;;;;119.67;56.60;;;;;;;;;;4986125;28;20513;-81
2022/01/25 01:03:06;;;;;;;118.67;56.50;;;;;;;;;;4986035;28;20475;-82
2022/01/25 01:05:33;;;;;;;129.50;56.63;;;;;;;;;;4985518;28;20516;-81
2022/01/25 01:07:59;;;;;;;126.03;55.60;;;;;;;;;;4985784;28;20482;-78
2022/01/25 01:10:26;;;;;;;126.63;54.93;;;;;;;;;;4985897;28;20452;-80
2022/01/25 01:13:23;;;;;;;124.77;54.80;;;;;;;;;;4985450;28;21465;-81
2022/01/25 01:15:57;;;;;;;129.97;57.00;;;;;;;;;;4985429;28;20447;-80
2022/01/25 01:29:43;;;;;;;122.30;56.63;;;;;;;;;;4953080;28;20489;-80
2022/01/25 01:32:27;;;;;;;125.57;56.20;;;;;;;;;;4984422;28;20470;-80
2022/01/25 01:35:26;;;;;;;138.93;58.20;;;;;;;;;;4986134;28;20487;-80
2022/01/25 01:38:12;;;;;;;123.67;53.53;;;;;;;;;;4981830;28;20478;-80
2022/01/25 01:43:28;;;;;;;124.30;57.10;;;;;;;;;;4972431;28;20468;-80
2022/01/25 01:46:03;;;;;;;128.30;55.20;;;;;;;;;;4985891;28;21033;-80
2022/01/25 01:48:32;;;;;;;122.63;54.97;;;;;;;;;;4995202;23;20506;-84
2022/01/25 01:51:03;;;;;;;120.87;56.20;;;;;;;;;;4979915;28;20976;-84
2022/01/25 01:53:30;;;;;;;118.20;55.50;;;;;;;;;;4982818;28;20458;-84
2022/01/25 01:55:56;;;;;;;124.97;55.80;;;;;;;;;;4981451;28;21122;-84
2022/01/25 01:58:22;;;;;;;126.87;52.70;;;;;;;;;;4984856;28;20471;-85
2022/01/25 02:00:49;;;;;;;118.77;55.90;;;;;;;;;;4984160;28;20465;-85
2022/01/25 02:03:17;;;;;;;128.13;58.90;;;;;;;;;;4984365;28;20479;-85
2022/01/25 02:05:44;;;;;;;121.90;54.67;;;;;;;;;;4985559;28;20462;-84
2022/01/25 02:08:10;;;;;;;118.43;57.13;;;;;;;;;;4983438;28;21173;-82
2022/01/25 02:10:37;;;;;;;118.00;51.87;;;;;;;;;;4985425;28;20446;-84
2022/01/25 02:13:05;;;;;;;122.60;56.30;;;;;;;;;;4985534;28;20474;-83
2022/01/25 02:15:31;;;;;;;117.33;53.80;;;;;;;;;;4984121;28;20473;-83
2022/01/25 02:22:25;;;;;;;118.73;54.67;;;;;;;;;;4984429;28;20478;-83
2022/01/25 02:23:31;;;;;;;121.67;54.63;;;;;;;;;;4953231;28;20499;-84
2022/01/25 02:25:58;;;;;;;119.33;58.17;;;;;;;;;;4983964;28;20466;-85
2022/01/25 02:28:25;;;;;;;115.27;53.13;;;;;;;;;;4985320;28;20510;-83
2022/01/25 02:30:52;;;;;;;119.87;55.97;;;;;;;;;;4982866;28;20451;-82
2022/01/25 02:33:18;;;;;;;121.07;56.60;;;;;;;;;;4983204;28;20486;-84
2022/01/25 02:35:44;;;;;;;114.93;54.40;;;;;;;;;;4984151;28;20466;-83
2022/01/25 02:38:12;;;;;;;123.20;54.60;;;;;;;;;;4984173;28;20491;-83
2022/01/25 02:40:39;;;;;;;127.23;57.13;;;;;;;;;;4983041;28;20471;-83
2022/01/25 02:43:05;;;;;;;126.33;55.93;;;;;;;;;;4985025;28;20482;-81
2022/01/25 02:45:35;;;;;;;124.60;54.63;;;;;;;;;;4983670;28;20443;-83
2022/01/25 02:50:45;;;;;;;118.60;57.10;;;;;;;;;;4982925;28;20442;-85
2022/01/25 02:53:13;;;;;;;122.87;55.10;;;;;;;;;;4980785;28;20625;-83
2022/01/25 02:55:39;;;;;;;118.00;56.07;;;;;;;;;;4981946;28;20508;-85
2022/01/25 02:58:06;;;;;;;115.83;54.50;;;;;;;;;;4982998;28;20479;-83
2022/01/25 03:00:32;;;;;;;113.67;53.77;;;;;;;;;;4984139;28;20927;-83
2022/01/25 03:02:58;;;;;;;111.47;51.37;;;;;;;;;;4983092;28;20494;-84
2022/01/25 03:05:25;;;;;;;118.80;52.10;;;;;;;;;;4983870;28;20467;-83
2022/01/25 03:07:51;;;;;;;115.43;53.20;;;;;;;;;;4980972;28;20850;-82
2022/01/25 03:10:19;;;;;;;125.27;56.03;;;;;;;;;;4982626;28;20466;-83
2022/01/25 03:12:49;;;;;;;110.97;51.77;;;;;;;;;;4981674;28;21035;-83
2022/01/25 03:15:31;;;;;;;114.13;51.90;;;;;;;;;;4981036;28;20495;-82
2022/01/25 03:18:01;;;;;;;121.30;53.60;;;;;;;;;;4983768;28;20479;-83
2022/01/25 03:20:48;;;;;;;110.53;52.50;;;;;;;;;;4982081;28;20509;-83
2022/01/25 03:23:18;;;;;;;118.20;55.07;;;;;;;;;;4979891;28;20490;-82
2022/01/25 03:25:48;;;;;;;125.70;53.80;;;;;;;;;;4983256;28;20960;-83
2022/01/25 03:28:14;;;;;;;113.43;52.00;;;;;;;;;;4980900;28;20482;-83
2022/01/25 03:30:40;;;;;;;110.27;51.60;;;;;;;;;;4981418;28;20471;-84
2022/01/25 03:33:07;;;;;;;130.50;53.67;;;;;;;;;;4980746;28;20470;-84
2022/01/25 03:35:33;;;;;;;111.83;49.30;;;;;;;;;;4985375;28;20462;-85
2022/01/25 03:37:59;;;;;;;111.27;53.27;;;;;;;;;;4981077;28;20527;-83
2022/01/25 03:40:25;;;;;;;113.07;50.57;;;;;;;;;;4982883;28;20454;-82
2022/01/25 03:42:54;;;;;;;116.83;53.77;;;;;;;;;;4983312;28;20483;-83
2022/01/25 03:45:27;;;;;;;111.83;51.57;;;;;;;;;;4983440;28;20843;-82
2022/01/25 03:49:47;;;;;;;104.67;50.57;;;;;;;;;;4981452;28;20525;-83
2022/01/25 03:50:45;;;;;;;110.07;49.80;;;;;;;;;;4982684;28;20447;-82
2022/01/25 03:53:12;;;;;;;114.13;51.40;;;;;;;;;;4981316;28;20545;-84
2022/01/25 03:55:38;;;;;;;115.13;52.30;;;;;;;;;;4981750;28;20921;-83
2022/01/25 03:58:07;;;;;;;119.10;50.60;;;;;;;;;;4980841;28;20537;-83
2022/01/25 04:00:34;;;;;;;112.13;52.00;;;;;;;;;;4983028;28;20455;-83
2022/01/25 04:03:05;;;;;;;113.50;52.90;;;;;;;;;;4981413;28;20482;-83
2022/01/25 04:05:36;;;;;;;108.57;49.10;;;;;;;;;;4983101;28;20496;-83
2022/01/25 04:08:03;;;;;;;105.20;49.40;;;;;;;;;;4981626;28;20505;-82
2022/01/25 04:10:30;;;;;;;111.27;49.93;;;;;;;;;;4982657;28;20470;-83
2022/01/25 04:12:56;;;;;;;113.43;49.27;;;;;;;;;;4982756;28;20911;-82
2022/01/25 04:15:24;;;;;;;110.30;48.90;;;;;;;;;;4982535;28;20456;-83
2022/01/25 04:17:58;;;;;;;101.00;49.00;;;;;;;;;;4981340;28;20495;-83
2022/01/25 04:20:29;;;;;;;107.53;49.87;;;;;;;;;;4981144;28;20481;-84
2022/01/25 04:25:39;;;;;;;107.03;49.47;;;;;;;;;;4984507;28;20445;-84
2022/01/25 04:28:05;;;;;;;106.77;51.20;;;;;;;;;;4983284;28;20538;-82
2022/01/25 04:30:33;;;;;;;104.20;47.77;;;;;;;;;;4982595;28;20506;-83
2022/01/25 04:33:02;;;;;;;107.97;51.30;;;;;;;;;;4983054;28;20486;-83
2022/01/25 04:35:43;;;;;;;105.63;47.87;;;;;;;;;;4981837;28;20455;-83
2022/01/25 04:49:13;;;;;;;106.07;51.97;;;;;;;;;;4982120;28;20961;-85
2022/01/25 04:51:53;;;;;;;102.63;49.50;;;;;;;;;;4982096;28;20483;-84
2022/01/25 04:54:30;;;;;;;99.87;47.57;;;;;;;;;;4981088;28;20477;-83
2022/01/25 04:57:07;;;;;;;99.87;47.87;;;;;;;;;;4981443;28;20475;-83
2022/01/25 04:59:39;;;;;;;98.00;46.20;;;;;;;;;;4982882;28;20506;-84
2022/01/25 05:02:12;;;;;;;104.83;50.80;;;;;;;;;;4981187;28;20486;-83
2022/01/25 05:04:43;;;;;;;97.70;46.40;;;;;;;;;;4982336;28;20459;-83
2022/01/25 05:07:27;;;;;;;104.03;49.87;;;;;;;;;;4982688;28;20467;-85
2022/01/25 05:09:55;;;;;;;104.37;48.90;;;;;;;;;;4980873;28;21035;-84
2022/01/25 05:12:32;;;;;;;100.43;47.93;;;;;;;;;;4977864;28;20502;-85
2022/01/25 05:15:05;;;;;;;99.93;49.63;;;;;;;;;;4981218;28;20462;-85
2022/01/25 05:17:38;;;;;;;105.50;48.43;;;;;;;;;;4982062;28;20545;-85
2022/01/25 05:22:46;;;;;;;110.10;50.93;;;;;;;;;;4977714;28;20578;-84
2022/01/25 05:25:12;;;;;;;98.33;45.77;;;;;;;;;;4981883;28;20459;-83
2022/01/25 05:27:38;;;;;;;105.00;49.60;;;;;;;;;;4980651;28;20510;-84
2022/01/25 05:30:05;;;;;;;109.63;49.70;;;;;;;;;;4980931;28;20494;-83
2022/01/25 05:32:34;;;;;;;100.17;46.50;;;;;;;;;;4983591;28;20482;-84
2022/01/25 05:35:00;;;;;;;96.97;47.03;;;;;;;;;;4983680;28;20554;-84
2022/01/25 05:37:26;;;;;;;97.87;46.20;;;;;;;;;;4976968;28;20514;-83
2022/01/25 05:39:53;;;;;;;90.53;45.30;;;;;;;;;;4982946;28;20473;-83
2022/01/25 05:42:48;;;;;;;100.47;51.00;;;;;;;;;;4985812;28;20484;-82
2022/01/25 05:45:25;;;;;;;99.23;46.20;;;;;;;;;;4985655;28;20501;-83
2022/01/25 05:47:53;;;;;;;103.80;46.33;;;;;;;;;;4985150;28;20537;-83
2022/01/25 05:50:19;;;;;;;105.43;49.70;;;;;;;;;;4985540;28;20486;-83
2022/01/25 05:52:45;;;;;;;93.57;43.57;;;;;;;;;;4985142;28;20518;-84
2022/01/25 05:55:12;;;;;;;96.43;46.90;;;;;;;;;;4983770;28;20521;-84
2022/01/25 05:57:38;;;;;;;100.93;47.10;;;;;;;;;;4983023;28;20486;-84
2022/01/25 06:00:05;;;;;;;99.73;46.77;;;;;;;;;;4983444;28;20957;-86
2022/01/25 06:02:33;;;;;;;100.37;45.67;;;;;;;;;;4981579;28;20927;-86
2022/01/25 06:05:00;;;;;;;104.10;48.17;;;;;;;;;;4983518;28;20470;-86
2022/01/25 06:07:27;;;;;;;108.93;49.33;;;;;;;;;;4985741;28;20527;-86
2022/01/25 06:09:54;;;;;;;103.20;48.03;;;;;;;;;;4983940;28;20490;-85
2022/01/25 06:12:20;;;;;;;99.73;46.27;;;;;;;;;;4985080;28;20474;-85
2022/01/25 06:14:46;;;;;;;101.47;48.50;;;;;;;;;;4986097;28;20442;-86
2022/01/25 06:17:12;;;;;;;99.53;46.97;;;;;;;;;;4984516;28;20474;-86
2022/01/25 06:19:39;;;;;;;95.50;47.77;;;;;;;;;;4985378;28;20542;-84
2022/01/25 06:22:06;;;;;;;96.60;44.70;;;;;;;;;;4985754;28;20471;-84
2022/01/25 06:24:32;;;;;;;102.67;46.57;;;;;;;;;;4986462;28;20451;-85
2022/01/25 06:26:59;;;;;;;103.33;48.57;;;;;;;;;;4983478;28;20490;-83
2022/01/25 06:29:25;;;;;;;97.83;46.50;;;;;;;;;;4984881;28;21069;-83
2022/01/25 06:31:51;;;;;;;93.90;45.93;;;;;;;;;;4987022;28;21506;-83
2022/01/25 06:34:18;;;;;;;102.77;45.07;;;;;;;;;;4984254;28;20463;-82
2022/01/25 06:36:46;;;;;;;101.73;49.77;;;;;;;;;;4981648;28;20482;-83
2022/01/25 06:39:13;;;;;;;98.37;48.00;;;;;;;;;;4984044;28;20462;-85
2022/01/25 06:41:39;;;;;;;106.00;46.77;;;;;;;;;;4983102;28;20831;-83
2022/01/25 06:44:06;;;;;;;91.40;46.23;;;;;;;;;;4983625;28;20464;-83
2022/01/25 06:46:33;;;;;;;99.77;47.20;;;;;;;;;;4982939;28;20521;-84
2022/01/25 06:48:59;;;;;;;94.80;48.20;;;;;;;;;;4983781;28;20553;-84
2022/01/25 06:51:25;;;;;;;96.57;45.03;;;;;;;;;;4985052;28;20470;-83
2022/01/25 06:53:52;;;;;;;96.67;43.50;;;;;;;;;;4984146;28;20821;-85
2022/01/25 06:56:19;;;;;;;104.80;46.00;;;;;;;;;;4982390;28;20873;-85
2022/01/25 06:58:45;;;;;;;94.07;44.33;;;;;;;;;;4984234;28;20509;-86
2022/01/25 07:01:12;;;;;;;97.17;46.60;;;;;;;;;;4986427;28;20447;-84
2022/01/25 07:03:38;;;;;;;99.83;49.47;;;;;;;;;;4983958;28;20451;-84
2022/01/25 07:06:04;;;;;;;101.83;46.80;;;;;;;;;;4983597;28;20457;-84
2022/01/25 07:08:31;;;;;;;109.83;46.30;;;;;;;;;;4986946;28;20469;-84
2022/01/25 07:10:57;;;;;;;100.17;46.93;;;;;;;;;;4984020;28;20490;-84
2022/01/25 07:13:25;;;;;;;102.00;46.70;;;;;;;;;;4984513;28;21007;-86
2022/01/25 07:15:51;;;;;;;94.60;47.27;;;;;;;;;;4983284;28;20452;-83
2022/01/25 07:18:18;;;;;;;102.27;48.60;;;;;;;;;;4981485;28;21089;-85
2022/01/25 07:20:44;;;;;;;98.03;46.93;;;;;;;;;;4985377;28;20450;-84
2022/01/25 07:23:11;;;;;;;95.13;44.93;;;;;;;;;;4980840;28;20485;-85
2022/01/25 07:25:37;;;;;;;101.17;45.27;;;;;;;;;;4985234;28;20505;-85
2022/01/25 07:28:03;;;;;;;93.00;43.50;;;;;;;;;;4975423;28;20482;-82
2022/01/25 07:30:31;;;;;;;91.60;43.53;;;;;;;;;;4981730;28;20497;-83
2022/01/25 07:32:57;;;;;;;99.50;47.17;;;;;;;;;;4983952;28;20494;-84
2022/01/25 07:35:23;;;;;;;92.73;43.37;;;;;;;;;;4981115;28;20514;-84
2022/01/25 07:37:50;;;;;;;105.50;47.27;;;;;;;;;;4985554;28;20534;-84
2022/01/25 07:40:17;;;;;;;92.73;44.97;;;;;;;;;;4982623;28;20471;-86
2022/01/25 07:42:44;;;;;;;91.73;43.60;;;;;;;;;;4984885;28;20537;-82
2022/01/25 07:45:11;;;;;;;92.07;42.90;;;;;;;;;;4979667;28;20463;-84
2022/01/25 07:47:39;;;;;;;100.20;46.27;;;;;;;;;;4984595;28;20989;-83
2022/01/25 07:50:06;;;;;;;99.10;45.33;;;;;;;;;;4983108;28;21035;-85
2022/01/25 07:52:32;;;;;;;90.60;44.00;;;;;;;;;;5016301;23;20530;-81
2022/01/25 07:54:59;;;;;;;91.27;43.40;;;;;;;;;;5026312;28;20452;-81
2022/01/25 07:57:25;;;;;;;91.97;44.37;;;;;;;;;;5024932;28;20625;-81
2022/01/25 07:59:52;;;;;;;88.37;41.60;;;;;;;;;;5024360;28;20496;-80
2022/01/25 08:02:19;;;;;;;97.47;42.37;;;;;;;;;;5023930;28;20476;-80
2022/01/25 08:04:47;;;;;;;90.37;42.13;;;;;;;;;;5025836;28;20441;-81
2022/01/25 08:07:13;;;;;;;87.90;43.50;;;;;;;;;;5023789;28;20456;-81
2022/01/25 08:09:40;;;;;;;90.63;44.80;;;;;;;;;;5025170;28;20492;-80
2022/01/25 08:12:06;;;;;;;93.23;44.23;;;;;;;;;;5025662;28;20500;-81
2022/01/25 08:14:32;;;;;;;89.67;44.77;;;;;;;;;;5024620;28;20469;-81
2022/01/25 08:16:59;;;;;;;100.30;44.63;;;;;;;;;;5023890;28;20741;-81
2022/01/25 08:19:25;;;;;;;92.77;43.83;;;;;;;;;;5025572;28;21046;-82
2022/01/25 08:21:53;;;;;;;90.23;44.40;;;;;;;;;;5025629;28;20515;-82
2022/01/25 08:24:19;;;;;;;90.23;43.80;;;;;;;;;;5027165;28;20503;-81
2022/01/25 08:26:46;;;;;;;94.97;43.00;;;;;;;;;;5024631;28;21176;-81
2022/01/25 08:29:13;;;;;;;92.10;42.43;;;;;;;;;;5024775;28;20478;-81
2022/01/25 08:31:40;;;;;;;129.17;47.10;;;;;;;;;;5023071;28;20967;-81
2022/01/25 08:34:06;;;;;;;88.33;43.80;;;;;;;;;;5024686;28;20489;-80
2022/01/25 08:36:32;;;;;;;89.73;41.97;;;;;;;;;;5023842;28;20544;-81
2022/01/25 08:39:01;;;;;;;92.77;42.57;;;;;;;;;;5024706;28;20500;-81
2022/01/25 08:41:27;;;;;;;87.53;42.67;;;;;;;;;;5026293;28;20454;-81
2022/01/25 08:43:54;;;;;;;97.07;45.27;;;;;;;;;;5023695;28;21105;-81
2022/01/25 08:46:20;;;;;;;101.13;45.90;;;;;;;;;;5025994;28;20442;-81
2022/01/25 08:48:46;;;;;;;94.43;44.67;;;;;;;;;;5024614;28;20484;-81
2022/01/25 08:51:13;;;;;;;91.50;43.30;;;;;;;;;;5024861;28;20490;-81
2022/01/25 08:53:39;;;;;;;88.33;41.37;;;;;;;;;;5022899;28;20492;-81
2022/01/25 08:56:07;;;;;;;95.57;43.17;;;;;;;;;;5025598;28;20861;-82
2022/01/25 08:58:34;;;;;;;99.83;46.57;;;;;;;;;;5023546;28;20487;-81
2022/01/25 09:01:00;;;;;;;86.83;41.10;;;;;;;;;;5025348;28;21014;-81
2022/01/25 09:03:26;;;;;;;94.10;45.87;;;;;;;;;;5025536;28;20488;-81
2022/01/25 09:05:53;;;;;;;97.80;42.17;;;;;;;;;;5022491;28;20487;-81
2022/01/25 09:08:22;;;;;;;81.07;39.93;;;;;;;;;;5023775;28;20481;-80
2022/01/25 09:10:50;;;;;;;92.90;43.87;;;;;;;;;;5023069;28;20493;-81
2022/01/25 09:13:18;;;;;;;89.07;41.50;;;;;;;;;;5023965;28;20484;-81
2022/01/25 09:15:44;;;;;;;81.73;40.37;;;;;;;;;;5023538;28;20454;-79
2022/01/25 09:18:10;;;;;;;94.40;42.53;;;;;;;;;;5021187;28;20478;-80
2022/01/25 09:20:36;;;;;;;95.23;44.20;;;;;;;;;;5022818;28;21176;-80
2022/01/25 09:23:03;;;;;;;90.50;41.70;;;;;;;;;;5021465;28;20480;-80
2022/01/25 09:25:29;;;;;;;97.33;44.40;;;;;;;;;;5023508;28;20457;-80
2022/01/25 09:27:55;;;;;;;87.63;43.30;;;;;;;;;;5021705;28;20478;-80
2022/01/25 09:30:23;;;;;;;87.73;41.83;;;;;;;;;;5023895;28;20488;-80
2022/01/25 09:32:49;;;;;;;82.47;38.07;;;;;;;;;;5022012;28;20481;-80
2022/01/25 09:35:16;;;;;;;89.90;42.53;;;;;;;;;;5022714;28;20468;-80
2022/01/25 09:37:43;;;;;;;90.47;42.27;;;;;;;;;;5022241;28;20480;-79
2022/01/25 09:40:10;;;;;;;78.30;40.00;;;;;;;;;;5022357;28;20950;-78
2022/01/25 09:42:36;;;;;;;84.47;41.30;;;;;;;;;;5022436;28;20504;-80
2022/01/25 09:45:03;;;;;;;91.07;41.47;;;;;;;;;;5023932;28;20455;-80
2022/01/25 09:47:31;;;;;;;79.03;40.27;;;;;;;;;;5020514;28;20495;-79
2022/01/25 09:49:57;;;;;;;85.40;40.00;;;;;;;;;;5023251;28;20543;-80
2022/01/25 09:52:23;;;;;;;92.73;40.07;;;;;;;;;;5018927;28;20492;-80
2022/01/25 09:54:53;;;;;;;93.23;43.63;;;;;;;;;;5023506;28;20515;-79
2022/01/25 09:57:19;;;;;;;88.80;39.80;;;;;;;;;;5020834;28;20792;-81
2022/01/25 09:59:46;;;;;;;90.73;42.93;;;;;;;;;;5022791;28;20457;-80
2022/01/25 10:02:12;;;;;;;93.40;43.33;;;;;;;;;;5020278;28;20548;-80
2022/01/25 10:04:42;;;;;;;86.63;41.20;;;;;;;;;;5023387;28;20445;-80
2022/01/25 10:07:10;;;;;;;87.07;38.33;;;;;;;;;;5021848;28;20533;-80
2022/01/25 10:09:39;;;;;;;84.47;39.37;;;;;;;;;;5022587;28;20721;-80
2022/01/25 10:12:19;;;;;;;82.87;40.20;;;;;;;;;;5021844;28;20442;-80
2022/01/25 10:14:53;;;;;;;87.83;38.43;;;;;;;;;;5020993;28;20465;-80
2022/01/25 10:17:29;;;;;;;84.47;38.87;;;;;;;;;;5022827;28;20458;-79
2022/01/25 10:19:56;;;;;;;88.20;40.70;;;;;;;;;;5024764;28;20448;-80
2022/01/25 10:22:23;;;;;;;87.77;40.00;;;;;;;;;;5022832;28;20484;-79
2022/01/25 10:24:49;;;;;;;93.63;41.90;;;;;;;;;;5026228;28;21065;-80
2022/01/25 10:27:16;;;;;;;86.93;38.27;;;;;;;;;;5023990;28;20453;-80
2022/01/25 10:29:42;;;;;;;76.73;37.80;;;;;;;;;;5025627;28;20883;-77
2022/01/25 10:32:10;;;;;;;88.07;39.20;;;;;;;;;;5024210;28;20913;-80
2022/01/25 10:34:38;;;;;;;91.83;41.20;;;;;;;;;;5025537;28;20990;-80
2022/01/25 10:37:09;;;;;;;92.30;40.57;;;;;;;;;;5025089;28;20510;-80
2022/01/25 10:39:37;;;;;;;80.83;36.47;;;;;;;;;;5025082;28;20539;-80
2022/01/25 10:42:04;;;;;;;81.67;38.53;;;;;;;;;;5026286;28;20462;-80
2022/01/25 10:44:45;;;;;;;88.00;40.23;;;;;;;;;;5024921;28;20472;-80
2022/01/25 10:47:12;;;;;;;87.57;38.63;;;;;;;;;;5024896;28;20461;-80
2022/01/25 10:49:43;;;;;;;95.97;42.97;;;;;;;;;;5022821;28;20500;-80
2022/01/25 10:52:11;;;;;;;85.67;39.27;;;;;;;;;;5023328;28;20489;-80
2022/01/25 10:54:39;;;;;;;84.10;41.27;;;;;;;;;;5023328;28;20515;-80
2022/01/25 10:57:05;;;;;;;83.03;42.10;;;;;;;;;;5026168;28;20458;-80
2022/01/25 10:59:33;;;;;;;91.73;43.03;;;;;;;;;;5025578;28;20452;-80
2022/01/25 11:02:00;;;;;;;87.07;39.37;;;;;;;;;;5025937;28;20453;-80
2022/01/25 11:04:28;;;;;;;93.17;40.77;;;;;;;;;;5025600;28;20477;-80
2022/01/25 11:06:56;;;;;;;78.93;38.83;;;;;;;;;;5021464;28;20468;-80
2022/01/25 11:09:25;;;;;;;91.77;43.20;;;;;;;;;;5024689;28;20482;-80
2022/01/25 11:11:54;;;;;;;98.87;42.90;;;;;;;;;;5025173;28;20538;-80
2022/01/25 11:17:04;;;;;;;80.43;38.40;;;;;;;;;;5026183;28;20448;-80
2022/01/25 11:19:31;;;;;;;79.27;40.90;;;;;;;;;;5024634;28;20453;-80
2022/01/25 11:21:58;;;;;;;95.63;41.10;;;;;;;;;;5025042;28;20449;-80
2022/01/25 11:24:29;;;;;;;93.03;41.77;;;;;;;;;;5024985;28;20483;-81
2022/01/25 11:26:55;;;;;;;87.17;39.87;;;;;;;;;;5025735;28;20956;-81
2022/01/25 11:29:22;;;;;;;86.70;40.90;;;;;;;;;;5022568;28;20477;-80
2022/01/25 11:31:50;;;;;;;87.63;41.40;;;;;;;;;;5023856;28;20484;-80
2022/01/25 11:34:16;;;;;;;84.43;35.20;;;;;;;;;;5025114;28;20489;-81
2022/01/25 11:36:44;;;;;;;81.03;36.93;;;;;;;;;;5024723;28;21076;-78
2022/01/25 11:39:10;;;;;;;94.83;41.87;;;;;;;;;;5024279;28;21082;-81
2022/01/25 11:41:42;;;;;;;85.07;37.93;;;;;;;;;;5025865;28;20472;-80
2022/01/25 11:44:09;;;;;;;87.33;41.37;;;;;;;;;;5024146;28;20511;-78
2022/01/25 11:46:36;;;;;;;87.50;40.93;;;;;;;;;;5022193;28;20460;-79
2022/01/25 11:49:05;;;;;;;83.00;37.50;;;;;;;;;;5021743;28;20493;-78
2022/01/25 11:51:31;;;;;;;92.87;40.50;;;;;;;;;;5020228;28;20542;-78
2022/01/25 11:54:02;;;;;;;83.73;40.87;;;;;;;;;;5020649;28;20476;-78
2022/01/25 11:56:28;;;;;;;81.93;37.10;;;;;;;;;;5022747;28;20458;-78
2022/01/25 11:58:57;;;;;;;95.83;40.77;;;;;;;;;;5021121;28;20531;-78
2022/01/25 12:01:24;;;;;;;87.80;37.70;;;;;;;;;;5022770;28;20456;-79
2022/01/25 12:03:51;;;;;;;82.37;38.20;;;;;;;;;;5019600;28;20533;-78
2022/01/25 12:06:20;;;;;;;85.50;39.43;;;;;;;;;;5021064;28;20465;-78
2022/01/25 12:08:55;;;;;;;80.90;40.80;;;;;;;;;;5018522;28;20597;-78
2022/01/25 12:11:25;;;;;;;94.93;41.90;;;;;;;;;;5021177;28;21117;-78
2022/01/25 12:14:06;;;;;;;87.40;39.43;;;;;;;;;;5019438;28;20485;-78
2022/01/25 12:16:43;;;;;;;86.60;40.40;;;;;;;;;;5020359;28;20463;-78
2022/01/25 12:19:09;;;;;;;82.67;38.90;;;;;;;;;;5020497;28;20488;-78
2022/01/25 12:21:54;;;;;;;75.37;39.37;;;;;;;;;;5022800;28;20450;-78
2022/01/25 12:24:24;;;;;;;84.03;38.77;;;;;;;;;;5019918;28;20484;-79
2022/01/25 12:26:55;;;;;;;82.43;37.60;;;;;;;;;;5021086;28;20469;-79
2022/01/25 12:29:34;;;;;;;79.40;37.90;;;;;;;;;;5020495;28;20477;-79
2022/01/25 12:32:23;;;;;;;73.10;34.97;;;;;;;;;;5021165;28;20492;-77
2022/01/25 12:35:06;;;;;;;82.53;37.33;;;;;;;;;;5021655;28;20478;-78
2022/01/25 12:37:54;;;;;;;78.73;36.37;;;;;;;;;;5018622;28;20473;-78
2022/01/25 12:40:41;;;;;;;74.50;36.87;;;;;;;;;;5020666;28;20458;-78
2022/01/25 12:43:09;;;;;;;85.27;37.13;;;;;;;;;;4985038;28;20859;-79
2022/01/25 12:45:36;;;;;;;73.20;34.80;;;;;;;;;;5020559;28;20543;-78
2022/01/25 12:48:05;;;;;;;70.47;33.23;;;;;;;;;;5020703;28;20489;-78
2022/01/25 12:50:32;;;;;;;74.87;32.23;;;;;;;;;;5020867;28;20511;-78
2022/01/25 12:52:58;;;;;;;67.33;29.63;;;;;;;;;;5019480;28;20582;-77
2022/01/25 12:55:26;;;;;;;65.63;30.23;;;;;;;;;;5019905;28;20519;-78
2022/01/25 12:57:53;;;;;;;65.10;29.50;;;;;;;;;;5019221;28;20527;-78
2022/01/25 13:00:20;;;;;;;66.20;30.07;;;;;;;;;;5018120;28;20461;-78
2022/01/25 13:02:47;;;;;;;68.57;31.87;;;;;;;;;;5018536;28;20487;-78
2022/01/25 13:05:16;;;;;;;60.27;26.83;;;;;;;;;;5020594;28;20879;-77
2022/01/25 13:07:42;;;;;;;69.07;32.07;;;;;;;;;;5019170;28;20503;-76
2022/01/25 13:10:11;;;;;;;62.43;30.47;;;;;;;;;;5019821;28;20459;-78
2022/01/25 13:12:54;;;;;;;61.73;29.37;;;;;;;;;;5017292;28;20628;-79
2022/01/25 13:15:39;;;;;;;72.20;29.60;;;;;;;;;;5019838;28;20982;-77
2022/01/25 13:18:10;;;;;;;64.97;29.57;;;;;;;;;;5018482;28;21018;-78
2022/01/25 13:20:39;;;;;;;64.40;28.70;;;;;;;;;;5019839;28;20537;-78
2022/01/25 13:23:05;;;;;;;63.33;28.83;;;;;;;;;;5018122;28;20478;-78
2022/01/25 13:25:44;;;;;;;62.40;30.40;;;;;;;;;;5020715;28;20467;-78
2022/01/25 13:28:21;;;;;;;63.37;28.87;;;;;;;;;;5017654;28;20568;-78
2022/01/25 13:30:49;;;;;;;63.97;28.80;;;;;;;;;;5022063;28;20545;-78
2022/01/25 13:33:17;;;;;;;62.70;29.20;;;;;;;;;;5019477;28;20485;-78
2022/01/25 13:35:52;;;;;;;68.87;32.07;;;;;;;;;;5020264;28;20454;-77
2022/01/25 13:38:19;;;;;;;60.27;29.90;;;;;;;;;;5019760;28;20476;-78
2022/01/25 13:40:50;;;;;;;67.50;32.77;;;;;;;;;;5019683;28;20455;-79
2022/01/25 13:45:42;;;;;;;58.17;28.27;;;;;;;;;;5020210;28;20856;-79
2022/01/25 13:46:17;;;;;;;67.23;28.77;;;;;;;;;;5021212;28;20461;-78
2022/01/25 13:48:43;;;;;;;63.00;32.90;;;;;;;;;;5020494;28;20476;-78
2022/01/25 13:51:13;;;;;;;59.40;28.80;;;;;;;;;;5019760;28;20485;-78
2022/01/25 13:53:40;;;;;;;64.13;30.23;;;;;;;;;;5124343;23;20789;-80
2022/01/25 13:56:07;;;;;;;67.33;29.70;;;;;;;;;;5007683;28;20450;-81
2022/01/25 13:58:34;;;;;;;68.87;31.50;;;;;;;;;;5007418;28;20473;-80
2022/01/25 14:01:03;;;;;;;61.53;31.67;;;;;;;;;;5007819;28;20501;-78
2022/01/25 14:03:30;;;;;;;60.13;29.73;;;;;;;;;;5006002;28;20488;-80
2022/01/25 14:05:57;;;;;;;69.80;32.83;;;;;;;;;;5006956;28;20480;-80
2022/01/25 14:08:35;;;;;;;69.47;31.40;;;;;;;;;;5006773;28;20517;-81
2022/01/25 14:11:04;;;;;;;65.70;31.00;;;;;;;;;;5006943;28;20449;-80
2022/01/25 14:21:58;;;;;;;70.57;31.23;;;;;;;;;;5008870;28;20434;-80
2022/01/25 14:24:33;;;;;;;74.50;32.20;;;;;;;;;;5007143;28;20490;-78
2022/01/25 14:26:59;;;;;;;71.87;31.70;;;;;;;;;;5008542;28;20449;-81
2022/01/25 14:29:26;;;;;;;63.27;30.47;;;;;;;;;;5005646;28;20936;-79
2022/01/25 14:31:52;;;;;;;78.23;31.23;;;;;;;;;;5007795;28;20513;-80
2022/01/25 14:34:19;;;;;;;73.30;34.70;;;;;;;;;;5003948;28;20529;-80
2022/01/25 14:36:47;;;;;;;71.83;32.50;;;;;;;;;;5007075;28;20453;-81
2022/01/25 14:39:13;;;;;;;71.33;32.03;;;;;;;;;;5008022;28;21070;-81
2022/01/25 14:41:41;;;;;;;74.00;32.97;;;;;;;;;;5006554;28;20458;-80
2022/01/25 14:44:08;;;;;;;67.00;31.90;;;;;;;;;;5007553;28;21031;-81
2022/01/25 14:46:36;;;;;;;58.80;29.00;;;;;;;;;;5007903;28;20473;-81
2022/01/25 14:49:06;;;;;;;62.97;31.53;;;;;;;;;;5008766;28;21093;-81
2022/01/25 14:51:34;;;;;;;64.23;32.33;;;;;;;;;;5007901;28;20890;-81
2022/01/25 14:54:01;;;;;;;72.97;31.20;;;;;;;;;;5010043;28;20482;-81
2022/01/25 14:56:29;;;;;;;65.27;32.50;;;;;;;;;;5009651;28;20450;-81
2022/01/25 15:01:41;;;;;;;70.50;31.70;;;;;;;;;;5007854;28;20466;-81
2022/01/25 15:04:07;;;;;;;74.50;35.83;;;;;;;;;;5007674;28;20490;-79
2022/01/25 15:06:33;;;;;;;67.07;32.90;;;;;;;;;;5008819;28;20470;-81
2022/01/25 15:08:59;;;;;;;74.80;33.40;;;;;;;;;;5007031;28;20480;-81
2022/01/25 15:11:31;;;;;;;73.37;34.40;;;;;;;;;;5008644;28;20457;-81
2022/01/25 15:14:06;;;;;;;70.90;33.87;;;;;;;;;;5008783;28;20481;-81
2022/01/25 15:16:32;;;;;;;70.43;32.70;;;;;;;;;;5009378;28;20461;-81
2022/01/25 15:18:59;;;;;;;73.80;32.90;;;;;;;;;;5007388;28;20496;-81
2022/01/25 15:21:25;;;;;;;86.23;37.47;;;;;;;;;;5010792;28;20446;-81
2022/01/25 15:23:51;;;;;;;77.80;35.27;;;;;;;;;;5009429;28;21032;-80
2022/01/25 15:26:19;;;;;;;73.33;34.97;;;;;;;;;;5009486;28;20458;-81
2022/01/25 15:28:49;;;;;;;83.83;38.30;;;;;;;;;;5007919;28;21086;-81
2022/01/25 15:31:18;;;;;;;76.07;38.10;;;;;;;;;;5010243;28;20552;-82
2022/01/25 15:33:45;;;;;;;79.40;37.40;;;;;;;;;;5006455;28;20462;-80
2022/01/25 15:36:15;;;;;;;80.07;35.40;;;;;;;;;;5010207;28;20982;-80